createdAt,value
2022-08-17T00:01:32.050Z,101055.94
2022-08-17T00:04:19.409Z,101064.78
2022-08-17T00:06:49.447Z,101065.44
2022-08-17T00:09:18.904Z,101062.00
2022-08-17T00:12:41.308Z,101055.59
2022-08-17T00:14:35.244Z,101053.22
2022-08-17T00:17:03.911Z,101055.09
2022-08-17T00:19:32.464Z,101044.84
2022-08-17T00:22:31.974Z,101050.53
2022-08-17T00:24:47.330Z,101050.19
2022-08-17T00:27:13.831Z,101047.09
2022-08-17T00:29:40.593Z,101050.81
2022-08-17T00:33:13.692Z,101042.72
2022-08-17T00:34:53.842Z,101049.16
2022-08-17T00:37:20.547Z,101033.56
2022-08-17T00:39:47.243Z,101029.53
2022-08-17T00:42:15.726Z,101037.84
2022-08-17T00:44:42.301Z,101037.56
2022-08-17T00:47:08.955Z,101036.44
2022-08-17T00:49:35.502Z,101033.81
2022-08-17T00:52:10.673Z,101033.19
2022-08-17T00:54:42.317Z,101034.88
2022-08-17T00:57:15.110Z,101038.06
2022-08-17T00:59:47.160Z,101033.38
2022-08-17T01:02:29.647Z,101038.34
2022-08-17T01:05:01.088Z,101038.72
2022-08-17T01:07:27.747Z,101037.06
2022-08-17T01:09:54.812Z,101032.31
2022-08-17T01:12:21.722Z,101039.00
2022-08-17T01:14:48.582Z,101009.81
2022-08-17T01:17:15.273Z,101020.84
2022-08-17T01:19:42.718Z,101025.22
2022-08-17T01:22:09.192Z,101025.06
2022-08-17T01:24:38.904Z,101014.13
2022-08-17T01:27:10.665Z,101012.47
2022-08-17T01:29:41.183Z,101008.09
2022-08-17T01:32:08.371Z,101020.03
2022-08-17T01:34:42.416Z,101030.31
2022-08-17T01:37:10.623Z,101013.56
2022-08-17T01:39:49.175Z,101030.53
2022-08-17T01:42:31.734Z,101020.16
2022-08-17T01:45:04.395Z,101023.91
2022-08-17T01:47:31.140Z,101013.63
2022-08-17T01:49:57.926Z,101010.56
2022-08-17T01:52:24.602Z,101017.59
2022-08-17T01:54:51.380Z,101003.44
2022-08-17T01:57:18.463Z,101018.53
2022-08-17T01:59:44.993Z,101020.94
2022-08-17T02:02:11.589Z,101007.22
2022-08-17T02:04:56.837Z,101013.56
2022-08-17T02:07:26.131Z,101018.59
2022-08-17T02:09:53.646Z,101019.56
2022-08-17T02:12:38.768Z,101017.09
2022-08-17T02:15:07.641Z,101009.22
2022-08-17T02:17:35.239Z,101000.31
2022-08-17T02:20:01.845Z,100992.28
2022-08-17T02:22:28.847Z,101000.22
2022-08-17T02:25:01.114Z,101005.41
2022-08-17T02:27:28.424Z,101001.22
2022-08-17T02:29:54.927Z,101003.22
2022-08-17T02:32:27.575Z,101001.66
2022-08-17T02:34:56.514Z,100977.00
2022-08-17T02:37:23.364Z,100992.78
2022-08-17T02:39:50.002Z,101003.56
2022-08-17T02:42:16.536Z,100994.31
2022-08-17T02:44:43.554Z,101000.56
2022-08-17T02:47:11.634Z,101025.25
2022-08-17T02:49:38.338Z,101022.16
2022-08-17T02:52:07.241Z,101023.41
2022-08-17T02:54:40.354Z,101035.38
2022-08-17T02:57:11.793Z,101020.69
2022-08-17T02:59:39.806Z,101022.38
2022-08-17T03:02:08.356Z,101015.84
2022-08-17T03:04:35.645Z,101024.03
2022-08-17T03:07:03.537Z,101028.38
2022-08-17T03:09:30.049Z,101018.31
2022-08-17T03:12:08.449Z,101025.97
2022-08-17T03:14:41.316Z,101030.72
2022-08-17T03:17:10.975Z,101030.56
2022-08-17T03:19:43.483Z,101026.22
2022-08-17T03:22:36.556Z,101017.34
2022-08-17T03:24:57.706Z,100998.31
2022-08-17T03:27:24.286Z,101018.00
2022-08-17T03:29:50.939Z,101009.44
2022-08-17T03:32:17.629Z,100998.72
2022-08-17T03:34:44.220Z,101008.44
2022-08-17T03:37:10.726Z,101005.59
2022-08-17T03:39:37.565Z,100999.88
2022-08-17T03:42:09.085Z,101013.66
2022-08-17T03:44:57.888Z,101018.03
2022-08-17T03:47:50.694Z,101019.53
2022-08-17T03:50:37.401Z,101005.22
2022-08-17T03:53:26.891Z,101013.78
2022-08-17T03:56:11.953Z,101010.94
2022-08-17T03:58:38.779Z,101013.78
2022-08-17T04:01:06.861Z,101000.50
2022-08-17T04:03:33.793Z,101009.13
2022-08-17T04:06:02.183Z,100983.91
2022-08-17T04:08:29.587Z,101009.47
2022-08-17T04:10:57.426Z,101006.63
2022-08-17T04:13:24.766Z,101015.75
2022-08-17T04:15:52.733Z,101029.25
2022-08-17T04:18:20.163Z,101042.22
2022-08-17T04:20:47.163Z,101034.69
2022-08-17T04:23:17.029Z,101042.22
2022-08-17T04:25:48.285Z,101048.66
2022-08-17T04:28:16.568Z,101035.00
2022-08-17T04:30:45.139Z,101032.16
2022-08-17T04:33:21.034Z,101041.75
2022-08-17T04:35:50.357Z,101050.53
2022-08-17T04:38:20.781Z,101054.06
2022-08-17T04:41:07.379Z,101052.53
2022-08-17T04:43:35.014Z,101046.81
2022-08-17T04:46:04.803Z,101046.66
2022-08-17T04:48:41.753Z,101040.75
2022-08-17T04:51:16.222Z,101034.84
2022-08-17T04:53:45.315Z,101034.16
2022-08-17T04:56:20.577Z,101030.47
2022-08-17T04:58:50.284Z,101033.00
2022-08-17T05:01:23.381Z,101051.00
2022-08-17T05:03:56.385Z,101051.19
2022-08-17T05:06:23.402Z,101046.00
2022-08-17T05:08:49.962Z,101045.50
2022-08-17T05:11:16.842Z,101051.88
2022-08-17T05:13:43.573Z,101047.31
2022-08-17T05:16:10.453Z,101055.75
2022-08-17T05:18:39.918Z,101034.72
2022-08-17T05:21:07.335Z,101059.25
2022-08-17T05:23:43.060Z,101063.16
2022-08-17T05:26:26.190Z,101066.72
2022-08-17T05:29:02.464Z,101054.25
2022-08-17T05:31:30.716Z,101066.03
2022-08-17T05:33:57.536Z,101059.63
2022-08-17T05:36:41.902Z,101063.34
2022-08-17T05:39:15.805Z,101069.72
2022-08-17T05:41:43.353Z,101056.91
2022-08-17T05:44:10.733Z,101056.56
2022-08-17T05:46:41.778Z,101059.81
2022-08-17T05:49:09.557Z,101046.16
2022-08-17T05:52:03.412Z,101052.59
2022-08-17T05:54:53.880Z,101052.03
2022-08-17T05:57:47.575Z,101043.97
2022-08-17T06:00:30.267Z,101034.25
2022-08-17T06:03:07.422Z,101064.56
2022-08-17T06:05:59.798Z,101073.81
2022-08-17T06:08:41.184Z,101071.97
2022-08-17T06:11:13.641Z,101063.88
2022-08-17T06:13:49.389Z,101066.41
2022-08-17T06:16:33.466Z,101048.53
2022-08-17T06:19:12.057Z,101039.47
2022-08-17T06:21:43.098Z,101045.97
2022-08-17T06:24:24.870Z,101052.88
2022-08-17T06:26:53.095Z,101056.88
2022-08-17T06:29:47.471Z,101062.91
2022-08-17T06:32:14.633Z,101046.34
2022-08-17T06:34:43.888Z,101077.47
2022-08-17T06:37:28.725Z,101077.06
2022-08-17T06:40:15.911Z,101077.91
2022-08-17T06:43:14.739Z,101072.63
2022-08-17T06:45:54.898Z,101061.03
2022-08-17T06:48:33.111Z,101062.00
2022-08-17T06:51:15.134Z,101077.78
2022-08-17T06:53:49.992Z,101068.69
2022-08-17T06:56:54.543Z,101094.75
2022-08-17T06:59:30.458Z,101093.53
2022-08-17T07:02:52.756Z,101088.81
2022-08-17T07:05:32.660Z,101098.06
2022-08-17T07:08:18.580Z,101083.94
2022-08-17T07:10:50.831Z,101083.44
2022-08-17T07:13:51.146Z,101093.44
2022-08-17T07:16:35.145Z,101087.88
2022-08-17T07:19:01.878Z,101100.75
2022-08-17T07:21:31.685Z,101109.72
2022-08-17T07:24:33.282Z,101097.22
2022-08-17T07:27:20.683Z,101093.38
2022-08-17T07:29:54.880Z,101091.66
2022-08-17T07:32:26.457Z,101093.56
2022-08-17T07:35:15.165Z,101098.66
2022-08-17T07:37:46.043Z,101102.69
2022-08-17T07:40:18.825Z,101102.66
2022-08-17T07:43:02.281Z,101062.91
2022-08-17T07:46:04.511Z,101090.47
2022-08-17T07:48:36.066Z,101092.84
2022-08-17T07:51:19.842Z,101100.59
2022-08-17T07:53:46.729Z,101103.56
2022-08-17T07:56:38.207Z,101114.91
2022-08-17T07:59:23.757Z,101115.13
2022-08-17T08:01:57.572Z,101119.78
2022-08-17T08:04:59.014Z,101123.84
2022-08-17T08:07:57.185Z,101110.81
2022-08-17T08:10:45.402Z,101127.78
2022-08-17T08:13:24.394Z,101118.97
2022-08-17T08:15:54.770Z,101133.69
2022-08-17T08:18:54.532Z,101133.63
2022-08-17T08:21:38.974Z,101131.03
2022-08-17T08:24:20.236Z,101153.84
2022-08-17T08:27:18.112Z,101150.72
2022-08-17T08:29:57.782Z,101166.56
2022-08-17T08:32:48.628Z,101163.00
2022-08-17T08:35:34.377Z,101147.34
2022-08-17T08:38:07.626Z,101134.75
2022-08-17T08:41:07.857Z,101125.00
2022-08-17T08:44:06.461Z,101127.72
2022-08-17T08:47:01.018Z,101135.78
2022-08-17T08:50:04.791Z,101143.69
2022-08-17T08:53:03.679Z,101157.56
2022-08-17T08:55:51.907Z,101156.34
2022-08-17T08:58:31.428Z,101158.97
2022-08-17T09:01:27.658Z,101183.44
2022-08-17T09:05:09.974Z,101202.63
2022-08-17T09:07:38.981Z,101230.78
2022-08-17T09:10:21.278Z,101255.38
2022-08-17T09:12:51.313Z,101266.41
2022-08-17T09:15:26.855Z,101238.47
2022-08-17T09:19:00.613Z,101250.69
2022-08-17T09:20:58.401Z,101226.78
2022-08-17T09:23:42.107Z,101180.84
2022-08-17T09:26:22.077Z,101155.88
2022-08-17T09:29:00.217Z,101119.03
2022-08-17T09:31:47.012Z,101051.88
2022-08-17T09:34:20.225Z,101072.13
2022-08-17T09:37:07.874Z,101096.31
2022-08-17T09:39:43.506Z,101116.19
2022-08-17T09:42:29.926Z,101117.16
2022-08-17T09:45:28.962Z,101114.59
2022-08-17T09:48:06.097Z,101119.00
2022-08-17T09:51:03.527Z,101135.34
2022-08-17T09:53:32.255Z,101121.44
2022-08-17T09:56:31.242Z,101116.44
2022-08-17T09:59:08.795Z,101114.22
2022-08-17T10:01:39.882Z,101122.22
2022-08-17T10:04:44.395Z,101140.88
2022-08-17T10:07:17.804Z,101150.16
2022-08-17T10:09:56.164Z,101149.47
2022-08-17T10:12:31.040Z,101154.00
2022-08-17T10:14:58.697Z,101148.78
2022-08-17T10:18:31.833Z,101156.97
2022-08-17T10:21:28.312Z,101152.44
2022-08-17T10:25:21.174Z,101140.00
2022-08-17T10:27:45.063Z,101151.97
2022-08-17T10:30:17.206Z,101153.47
2022-08-17T10:32:55.202Z,101164.25
2022-08-17T10:35:34.349Z,101158.22
2022-08-17T10:38:26.165Z,101159.69
2022-08-17T10:41:20.559Z,101176.09
2022-08-17T10:44:36.955Z,101181.53
2022-08-17T10:47:15.058Z,101181.72
2022-08-17T10:49:50.441Z,101171.00
2022-08-17T10:52:20.030Z,101196.06
2022-08-17T10:54:50.478Z,101203.72
2022-08-17T10:57:31.798Z,101226.41
2022-08-17T11:00:06.967Z,101232.84
2022-08-17T11:02:50.162Z,101240.28
2022-08-17T11:05:29.464Z,101244.84
2022-08-17T11:08:17.383Z,101249.84
2022-08-17T11:10:58.829Z,101242.69
2022-08-17T11:13:44.944Z,101241.47
2022-08-17T11:16:20.092Z,101240.53
2022-08-17T11:19:12.432Z,101235.72
2022-08-17T11:21:45.126Z,101234.50
2022-08-17T11:24:16.745Z,101239.28
2022-08-17T11:27:17.506Z,101238.47
2022-08-17T11:30:02.114Z,101241.22
2022-08-17T11:32:47.794Z,101230.97
2022-08-17T11:35:30.340Z,101243.78
2022-08-17T11:38:15.885Z,101241.44
2022-08-17T11:41:18.443Z,101225.63
2022-08-17T11:44:02.186Z,101237.81
2022-08-17T11:47:18.597Z,101239.84
2022-08-17T11:50:39.883Z,101242.53
2022-08-17T11:53:07.055Z,101231.59
2022-08-17T11:55:39.540Z,101234.81
2022-08-17T11:58:37.555Z,101234.44
2022-08-17T12:01:12.364Z,101242.53
2022-08-17T12:03:55.346Z,101238.50
2022-08-17T12:06:45.267Z,101229.56
2022-08-17T12:09:25.544Z,101245.06
2022-08-17T12:12:13.897Z,101238.50
2022-08-17T12:17:55.960Z,101229.91
2022-08-17T12:20:41.636Z,101226.03
2022-08-17T12:23:18.843Z,101240.19
2022-08-17T12:26:13.597Z,101241.38
2022-08-17T12:28:45.926Z,101222.31
2022-08-17T12:31:21.964Z,101219.31
2022-08-17T12:33:51.701Z,101217.25
2022-08-17T12:36:22.846Z,101217.91
2022-08-17T12:38:59.525Z,101219.59
2022-08-17T12:41:47.192Z,101220.44
2022-08-17T12:44:18.280Z,101227.50
2022-08-17T12:46:46.989Z,101231.38
2022-08-17T12:49:16.957Z,101230.34
2022-08-17T12:51:46.194Z,101234.63
2022-08-17T12:54:32.089Z,101231.59
2022-08-17T12:57:05.587Z,101240.84
2022-08-17T12:59:33.260Z,101227.53
2022-08-17T13:02:00.814Z,101224.19
2022-08-17T13:04:29.525Z,101214.09
2022-08-17T13:07:08.022Z,101227.38
2022-08-17T13:09:36.108Z,101238.16
2022-08-17T13:12:11.018Z,101239.00
2022-08-17T13:14:38.362Z,101237.16
2022-08-17T13:17:09.849Z,101236.66
2022-08-17T13:19:48.421Z,101236.97
2022-08-17T13:22:14.963Z,101228.38
2022-08-17T13:24:53.201Z,101240.50
2022-08-17T13:27:22.345Z,101236.00
2022-08-17T13:29:53.864Z,101219.97
2022-08-17T13:32:31.086Z,101235.78
2022-08-17T13:35:15.249Z,101240.16
2022-08-17T13:38:01.264Z,101240.16
2022-08-17T13:40:42.080Z,101238.81
2022-08-17T13:43:11.246Z,101220.41
2022-08-17T13:45:50.781Z,101226.97
2022-08-17T13:48:29.553Z,101214.69
2022-08-17T13:50:59.647Z,101215.13
2022-08-17T13:53:36.035Z,101218.56
2022-08-17T13:56:37.353Z,101214.50
2022-08-17T13:59:04.824Z,101216.16
2022-08-17T14:01:35.995Z,101205.91
2022-08-17T14:04:15.410Z,101206.91
2022-08-17T14:06:59.288Z,101207.59
2022-08-17T14:09:38.615Z,101209.75
2022-08-17T14:12:10.653Z,101203.69
2022-08-17T14:14:37.855Z,101197.59
2022-08-17T14:17:05.113Z,101199.25
2022-08-17T14:19:34.470Z,101188.31
2022-08-17T14:22:01.229Z,101193.53
2022-08-17T14:24:34.298Z,101186.13
2022-08-17T14:27:03.398Z,101176.03
2022-08-17T14:29:32.485Z,101187.31
2022-08-17T14:32:04.500Z,101175.16
2022-08-17T14:34:31.214Z,101155.66
2022-08-17T14:36:57.817Z,101169.03
2022-08-17T14:39:24.449Z,101162.47
2022-08-17T14:41:50.986Z,101163.59
2022-08-17T14:44:17.708Z,101159.41
2022-08-17T14:46:44.980Z,101160.72
2022-08-17T14:49:13.027Z,101162.72
2022-08-17T14:51:43.974Z,101160.72
2022-08-17T14:54:11.844Z,101149.66
2022-08-17T14:57:22.749Z,101153.13
2022-08-17T14:59:46.010Z,101150.00
2022-08-17T15:02:13.269Z,101153.38
2022-08-17T15:04:45.359Z,101162.25
2022-08-17T15:07:12.761Z,101144.53
2022-08-17T15:09:39.442Z,101152.22
2022-08-17T15:12:09.046Z,101144.59
2022-08-17T15:14:36.343Z,101154.84
2022-08-17T15:17:03.806Z,101153.38
2022-08-17T15:19:30.360Z,101166.38
2022-08-17T15:21:57.532Z,101159.78
2022-08-17T15:24:24.087Z,101161.31
2022-08-17T15:26:51.457Z,101163.75
2022-08-17T15:29:18.029Z,101167.09
2022-08-17T15:31:44.645Z,101176.53
2022-08-17T15:34:11.236Z,101154.44
2022-08-17T15:36:38.050Z,101155.44
2022-08-17T15:39:08.067Z,101165.88
2022-08-17T15:41:34.621Z,101179.03
2022-08-17T15:44:01.254Z,101163.91
2022-08-17T15:46:28.325Z,101181.53
2022-08-17T15:48:58.918Z,101175.81
2022-08-17T15:51:30.506Z,101180.38
2022-08-17T15:54:04.427Z,101174.28
2022-08-17T15:56:44.250Z,101175.84
2022-08-17T15:59:10.848Z,101185.94
2022-08-17T16:03:01.430Z,101180.47
2022-08-17T16:04:30.507Z,101179.13
2022-08-17T16:06:57.931Z,101186.38
2022-08-17T16:09:24.633Z,101174.75
2022-08-17T16:11:52.801Z,101166.03
2022-08-17T16:14:22.520Z,101184.34
2022-08-17T16:16:50.638Z,101170.56
2022-08-17T16:19:17.268Z,101175.59
2022-08-17T16:21:44.137Z,101179.94
2022-08-17T16:24:13.080Z,101177.53
2022-08-17T16:26:40.110Z,101163.13
2022-08-17T16:29:07.669Z,101178.78
2022-08-17T16:31:36.027Z,101185.75
2022-08-17T16:34:17.267Z,101179.50
2022-08-17T16:36:53.560Z,101183.41
2022-08-17T16:39:22.856Z,101178.47
2022-08-17T16:41:50.309Z,101174.59
2022-08-17T16:44:21.395Z,101170.22
2022-08-17T16:46:48.973Z,101145.19
2022-08-17T16:49:35.315Z,101177.50
2022-08-17T16:52:06.830Z,101180.00
2022-08-17T16:54:35.256Z,101183.41
2022-08-17T16:57:03.986Z,101208.41
2022-08-17T16:59:40.868Z,101195.25
2022-08-17T17:02:11.209Z,101193.63
2022-08-17T17:04:45.938Z,101196.63
2022-08-17T17:07:15.311Z,101194.00
2022-08-17T17:09:43.890Z,101188.94
2022-08-17T17:12:18.301Z,101193.03
2022-08-17T17:14:47.676Z,101186.19
2022-08-17T17:17:30.323Z,101191.56
2022-08-17T17:20:15.101Z,101184.31
2022-08-17T17:23:05.446Z,101201.13
2022-08-17T17:25:52.586Z,101198.91
2022-08-17T17:28:56.214Z,101196.09
2022-08-17T17:31:31.475Z,101194.75
2022-08-17T17:34:04.451Z,101204.75
2022-08-17T17:36:40.667Z,101207.47
2022-08-17T17:39:14.140Z,101204.50
2022-08-17T17:41:43.572Z,101203.94
2022-08-17T17:44:18.000Z,101209.03
2022-08-17T17:46:53.193Z,101202.13
2022-08-17T17:49:20.303Z,101210.84
2022-08-17T17:52:11.150Z,101212.53
2022-08-17T17:54:47.927Z,101216.06
2022-08-17T17:57:29.623Z,101210.03
2022-08-17T18:00:14.775Z,101216.16
2022-08-17T18:02:47.379Z,101207.41
2022-08-17T18:05:37.250Z,101204.41
2022-08-17T18:08:34.402Z,101203.22
2022-08-17T18:11:24.048Z,101200.69
2022-08-17T18:13:59.884Z,101214.34
2022-08-17T18:16:32.059Z,101227.16
2022-08-17T18:18:59.181Z,101226.00
2022-08-17T18:21:40.158Z,101232.06
2022-08-17T18:24:08.632Z,101233.78
2022-08-17T18:26:50.149Z,101240.16
2022-08-17T18:29:30.414Z,101242.19
2022-08-17T18:32:18.529Z,101233.94
2022-08-17T18:34:48.686Z,101210.69
2022-08-17T18:37:33.121Z,101246.41
2022-08-17T18:40:17.155Z,101253.50
2022-08-17T18:43:05.498Z,101246.75
2022-08-17T18:45:39.481Z,101257.88
2022-08-17T18:48:19.310Z,101256.84
2022-08-17T18:50:46.043Z,101250.63
2022-08-17T18:53:34.040Z,101248.97
2022-08-17T18:56:31.726Z,101249.09
2022-08-17T18:59:41.567Z,101246.59
2022-08-17T19:02:32.440Z,101241.50
2022-08-17T19:05:10.952Z,101238.50
2022-08-17T19:07:50.115Z,101238.16
2022-08-17T19:10:28.892Z,101236.31
2022-08-17T19:13:12.637Z,101244.56
2022-08-17T19:16:12.300Z,101242.69
2022-08-17T19:18:44.006Z,101240.69
2022-08-17T19:21:20.679Z,101252.31
2022-08-17T19:23:53.750Z,101270.88
2022-08-17T19:26:54.709Z,101283.16
2022-08-17T19:32:22.122Z,101285.50
2022-08-17T19:34:49.318Z,101282.66
2022-08-17T19:37:50.567Z,101303.38
2022-08-17T19:40:53.759Z,101302.53
2022-08-17T19:43:51.422Z,101306.59
2022-08-17T19:46:48.663Z,101305.56
2022-08-17T19:49:40.819Z,101309.78
2022-08-17T19:52:29.132Z,101307.91
2022-08-17T19:55:37.644Z,101310.28
2022-08-17T19:58:21.680Z,101303.34
2022-08-17T20:00:52.135Z,101316.69
2022-08-17T20:03:31.436Z,101310.59
2022-08-17T20:06:12.654Z,101314.81
2022-08-17T20:08:53.994Z,101306.38
2022-08-17T20:11:28.425Z,101303.34
2022-08-17T20:14:12.032Z,101265.03
2022-08-17T20:16:38.903Z,101295.75
2022-08-17T20:19:27.664Z,101302.81
2022-08-17T20:22:18.412Z,101307.88
2022-08-17T20:24:54.221Z,101310.06
2022-08-17T20:27:31.305Z,101305.34
2022-08-17T20:30:01.604Z,101295.41
2022-08-17T20:32:31.460Z,101294.91
2022-08-17T20:35:25.920Z,101292.72
2022-08-17T20:37:59.233Z,101281.09
2022-08-17T20:40:32.797Z,101285.66
2022-08-17T20:43:34.363Z,101270.81
2022-08-17T20:46:18.801Z,101280.06
2022-08-17T20:48:50.040Z,101273.34
2022-08-17T20:51:22.612Z,101277.56
2022-08-17T20:53:55.141Z,101276.19
2022-08-17T20:56:43.548Z,101282.03
2022-08-17T20:59:31.654Z,101267.22
2022-08-17T21:02:18.590Z,101296.31
2022-08-17T21:04:52.709Z,101294.63
2022-08-17T21:07:53.100Z,101290.28
2022-08-17T21:10:25.935Z,101298.84
2022-08-17T21:13:21.788Z,101268.31
2022-08-17T21:16:41.356Z,101295.34
2022-08-17T21:19:25.947Z,101278.81
2022-08-17T21:22:28.620Z,101299.88
2022-08-17T21:25:16.185Z,101298.72
2022-08-17T21:28:10.149Z,101281.84
2022-08-17T21:30:39.125Z,101307.59
2022-08-17T21:33:16.675Z,101304.19
2022-08-17T21:35:49.309Z,101308.69
2022-08-17T21:38:19.519Z,101299.75
2022-08-17T21:40:50.061Z,101321.97
2022-08-17T21:43:22.941Z,101318.59
2022-08-17T21:46:02.204Z,101326.28
2022-08-17T21:48:32.212Z,101337.06
2022-08-17T21:51:06.657Z,101337.22
2022-08-17T21:54:06.171Z,101339.75
2022-08-17T21:56:38.705Z,101339.06
2022-08-17T21:59:16.114Z,101340.91
2022-08-17T22:01:43.247Z,101336.66
2022-08-17T22:04:11.293Z,101349.94
2022-08-17T22:06:55.841Z,101342.88
2022-08-17T22:09:34.568Z,101328.94
2022-08-17T22:12:04.750Z,101334.31
2022-08-17T22:14:52.466Z,101333.06
2022-08-17T22:17:27.119Z,101332.53
2022-08-17T22:19:58.390Z,101323.13
2022-08-17T22:22:27.704Z,101335.41
2022-08-17T22:25:02.411Z,101315.47
2022-08-17T22:27:59.402Z,101332.03
2022-08-17T22:30:34.470Z,101338.25
2022-08-17T22:33:33.015Z,101341.63
2022-08-17T22:36:13.161Z,101347.53
2022-08-17T22:38:41.488Z,101344.13
2022-08-17T22:41:41.112Z,101357.25
2022-08-17T22:44:31.884Z,101362.72
2022-08-17T22:47:01.355Z,101357.34
2022-08-17T22:49:53.359Z,101356.44
2022-08-17T22:52:57.377Z,101362.13
2022-08-17T22:55:43.624Z,101357.44
2022-08-17T22:58:40.775Z,101351.22
2022-08-17T23:01:32.588Z,101361.66
2022-08-17T23:04:03.058Z,101361.97
2022-08-17T23:06:33.884Z,101347.31
2022-08-17T23:09:03.579Z,101321.31
2022-08-17T23:11:49.290Z,101355.50
2022-08-17T23:14:19.244Z,101358.66
2022-08-17T23:16:46.940Z,101361.34
2022-08-17T23:19:16.049Z,101351.59
2022-08-17T23:21:44.869Z,101339.25
2022-08-17T23:24:17.093Z,101358.75
2022-08-17T23:26:43.633Z,101348.94
2022-08-17T23:29:10.192Z,101354.31
2022-08-17T23:31:38.821Z,101360.69
2022-08-17T23:34:15.093Z,101364.00
2022-08-17T23:36:42.220Z,101365.69
2022-08-17T23:39:08.743Z,101348.50
2022-08-17T23:41:39.810Z,101355.25
2022-08-17T23:44:07.176Z,101348.50
2022-08-17T23:46:34.528Z,101360.94
2022-08-17T23:49:01.239Z,101359.88
2022-08-17T23:51:31.834Z,101364.56
2022-08-17T23:54:08.207Z,101367.25
2022-08-17T23:56:43.824Z,101356.28
2022-08-17T23:59:11.283Z,101353.34
